Time;durP1;ratioP1;P1;durP2;ratioP2;P2;SDS_P1;SDS_P2;PMS_P1;PMS_P2;Temp;Humidity;BMP_temperature;BMP_pressure;BME280_temperature;BME280_humidity;BME280_pressure;Samples;Min_cycle;Max_cycle;Signal;HPM_P1;HPM_P2
2023/07/12 00:00:23;;;;;;;6.03;4.95;;;25.00;99.90;;;;;;4999469;28;20633;-75
2023/07/12 00:02:50;;;;;;;6.05;4.95;;;24.90;99.90;;;;;;4999078;28;20697;-74
2023/07/12 00:05:18;;;;;;;6.70;5.15;;;24.70;99.90;;;;;;4997373;28;20315;-75
2023/07/12 00:07:46;;;;;;;5.20;4.78;;;24.50;99.90;;;;;;4999396;28;20268;-75
2023/07/12 00:10:20;;;;;;;6.00;5.40;;;24.40;99.90;;;;;;5001770;28;20197;-75
2023/07/12 00:12:49;;;;;;;6.68;6.05;;;24.30;99.90;;;;;;4999751;28;20247;-75
2023/07/12 00:15:22;;;;;;;5.55;5.05;;;24.30;99.90;;;;;;4999224;28;20733;-75
2023/07/12 00:17:49;;;;;;;5.95;5.35;;;24.30;99.90;;;;;;5000703;28;20218;-75
2023/07/12 00:20:25;;;;;;;6.65;5.15;;;24.40;99.90;;;;;;4999194;28;20197;-75
2023/07/12 00:22:52;;;;;;;5.32;4.82;;;24.50;99.90;;;;;;4996048;28;20649;-75
2023/07/12 00:25:21;;;;;;;6.07;5.03;;;24.50;99.90;;;;;;5001789;28;20282;-75
2023/07/12 00:27:50;;;;;;;5.40;5.00;;;24.60;99.90;;;;;;4998051;28;20516;-75
2023/07/12 00:30:20;;;;;;;5.80;5.28;;;24.60;99.90;;;;;;5001997;28;20294;-75
2023/07/12 00:32:52;;;;;;;6.75;5.57;;;24.70;99.90;;;;;;5004805;28;20307;-73
2023/07/12 00:35:24;;;;;;;5.10;4.70;;;24.70;99.90;;;;;;5004640;28;20240;-73
2023/07/12 00:37:53;;;;;;;6.65;5.40;;;24.70;99.90;;;;;;5002732;28;20204;-73
2023/07/12 00:40:45;;;;;;;5.47;5.07;;;24.70;99.90;;;;;;5001774;28;20733;-73
2023/07/12 00:43:22;;;;;;;5.75;5.15;;;24.80;99.90;;;;;;4996286;28;20325;-73
2023/07/12 00:45:51;;;;;;;5.57;5.05;;;24.80;99.90;;;;;;5001572;28;20285;-73
2023/07/12 00:48:19;;;;;;;5.15;4.65;;;24.80;99.90;;;;;;5004281;28;20262;-73
2023/07/12 00:50:47;;;;;;;5.30;4.80;;;24.80;99.90;;;;;;5002862;28;20209;-73
2023/07/12 00:53:15;;;;;;;7.35;6.65;;;24.80;99.90;;;;;;5002149;28;20694;-73
2023/07/12 00:56:04;;;;;;;6.50;5.50;;;24.50;99.90;;;;;;5001914;28;20252;-73
2023/07/12 00:58:35;;;;;;;6.88;6.18;;;24.40;99.90;;;;;;5002425;28;20220;-73
2023/07/12 01:01:04;;;;;;;6.40;5.70;;;24.40;99.90;;;;;;5003709;28;20731;-73
2023/07/12 01:03:34;;;;;;;6.00;5.50;;;24.40;99.90;;;;;;5000372;28;20634;-73
2023/07/12 01:06:02;;;;;;;5.78;5.28;;;24.50;99.90;;;;;;5003711;28;20220;-73
2023/07/12 01:08:30;;;;;;;5.97;5.47;;;24.50;99.90;;;;;;5002110;28;20667;-74
2023/07/12 01:11:00;;;;;;;5.90;5.30;;;24.60;99.90;;;;;;5000141;28;20200;-73
2023/07/12 01:13:30;;;;;;;5.82;5.32;;;24.60;99.90;;;;;;5004160;28;20927;-74
2023/07/12 01:16:00;;;;;;;5.78;5.25;;;24.50;99.90;;;;;;5000602;28;20228;-74
2023/07/12 01:18:27;;;;;;;6.20;4.85;;;24.30;99.90;;;;;;5002608;28;20265;-73
2023/07/12 01:21:08;;;;;;;4.70;4.28;;;23.90;99.90;;;;;;5006317;28;20261;-75
2023/07/12 01:23:35;;;;;;;5.30;4.45;;;23.80;99.90;;;;;;5001258;28;20343;-76
2023/07/12 01:26:25;;;;;;;5.03;4.53;;;23.60;99.90;;;;;;4998332;28;20240;-75
2023/07/12 01:28:54;;;;;;;4.15;3.78;;;23.30;99.90;;;;;;5000127;28;20200;-75
2023/07/12 01:31:21;;;;;;;4.05;3.30;;;23.00;99.90;;;;;;5003071;28;20208;-76
2023/07/12 01:33:49;;;;;;;3.92;3.63;;;22.80;99.90;;;;;;4999571;28;20232;-75
2023/07/12 01:36:17;;;;;;;4.20;3.78;;;22.90;99.90;;;;;;5002786;28;20711;-75
2023/07/12 01:38:44;;;;;;;4.88;4.10;;;23.10;99.90;;;;;;5001502;28;20647;-76
2023/07/12 01:41:12;;;;;;;7.28;4.63;;;23.30;99.90;;;;;;5003824;28;20232;-76
2023/07/12 01:43:39;;;;;;;5.88;4.93;;;23.10;99.90;;;;;;4999213;28;20303;-75
2023/07/12 01:46:06;;;;;;;5.68;5.18;;;22.70;99.90;;;;;;5001363;28;20224;-75
2023/07/12 01:48:33;;;;;;;6.05;5.43;;;22.40;99.90;;;;;;5001398;28;20304;-76
2023/07/12 01:51:01;;;;;;;5.70;4.93;;;22.30;99.90;;;;;;4999550;28;20231;-75
2023/07/12 01:53:30;;;;;;;5.35;4.38;;;22.20;99.90;;;;;;5001243;28;20235;-76
2023/07/12 01:55:56;;;;;;;5.07;4.57;;;22.20;99.90;;;;;;5001656;28;20224;-76
2023/07/12 01:58:24;;;;;;;4.90;4.40;;;22.40;99.90;;;;;;5001535;28;20276;-75
2023/07/12 02:00:51;;;;;;;6.50;5.57;;;22.50;99.90;;;;;;5003983;28;20208;-76
2023/07/12 02:03:19;;;;;;;7.13;6.43;;;22.40;99.90;;;;;;5001844;28;20304;-76
2023/07/12 02:05:46;;;;;;;6.82;6.13;;;22.00;99.90;;;;;;5000637;28;20401;-75
2023/07/12 02:08:13;;;;;;;6.90;5.55;;;21.60;99.90;;;;;;4999854;28;20223;-75
2023/07/12 02:10:42;;;;;;;7.00;5.43;;;21.50;99.90;;;;;;5002372;28;20196;-75
2023/07/12 02:13:10;;;;;;;5.68;5.05;;;21.50;99.90;;;;;;5007727;28;20236;-76
2023/07/12 02:15:37;;;;;;;5.03;4.57;;;21.70;99.90;;;;;;5003528;28;20227;-75
2023/07/12 02:18:05;;;;;;;5.13;4.63;;;22.00;99.90;;;;;;5000695;28;20232;-75
2023/07/12 02:20:33;;;;;;;7.63;4.68;;;22.30;99.90;;;;;;4998715;28;20278;-73
2023/07/12 02:23:00;;;;;;;5.00;3.92;;;22.50;99.90;;;;;;4997561;28;20208;-73
2023/07/12 02:25:27;;;;;;;5.25;4.15;;;22.60;99.90;;;;;;4999890;28;20254;-73
2023/07/12 02:27:55;;;;;;;6.35;4.22;;;22.70;99.90;;;;;;5000106;28;20795;-72
2023/07/12 02:30:25;;;;;;;5.72;4.75;;;23.00;99.90;;;;;;5002611;28;20283;-73
2023/07/12 02:32:53;;;;;;;6.20;4.72;;;23.00;99.90;;;;;;5002387;28;20794;-73
2023/07/12 02:35:21;;;;;;;4.40;3.40;;;22.70;99.90;;;;;;5002732;28;20270;-73
2023/07/12 02:37:48;;;;;;;4.05;3.63;;;22.60;99.90;;;;;;5002888;28;20254;-73
2023/07/12 02:40:16;;;;;;;3.40;3.10;;;22.60;99.90;;;;;;5003055;28;20283;-73
2023/07/12 02:42:43;;;;;;;3.95;3.30;;;22.80;99.90;;;;;;4999703;28;20196;-73
2023/07/12 02:45:11;;;;;;;5.43;4.93;;;22.80;99.90;;;;;;5003297;28;20370;-74
2023/07/12 02:47:38;;;;;;;5.68;4.65;;;22.50;99.90;;;;;;5007645;28;20231;-74
2023/07/12 02:50:05;;;;;;;5.13;4.47;;;21.90;99.90;;;;;;5004472;28;20622;-74
2023/07/12 02:52:33;;;;;;;6.20;5.47;;;21.60;99.90;;;;;;5004277;28;20262;-73
2023/07/12 02:55:00;;;;;;;4.70;4.30;;;21.70;99.90;;;;;;5004308;28;20250;-74
2023/07/12 02:57:27;;;;;;;5.70;5.07;;;21.60;99.90;;;;;;5003442;28;20292;-73
2023/07/12 02:59:54;;;;;;;7.13;5.50;;;21.50;99.90;;;;;;5002935;28;20282;-74
2023/07/12 03:02:22;;;;;;;7.35;5.97;;;21.10;99.90;;;;;;5003433;28;20297;-73
2023/07/12 03:04:49;;;;;;;6.40;5.80;;;20.70;99.90;;;;;;5001614;28;20873;-73
2023/07/12 03:07:16;;;;;;;8.52;5.97;;;20.50;99.90;;;;;;5002761;28;20224;-73
2023/07/12 03:09:43;;;;;;;6.10;5.07;;;20.40;99.90;;;;;;5003974;28;20287;-73
2023/07/12 03:12:10;;;;;;;5.28;4.78;;;20.50;99.90;;;;;;5000573;28;20201;-72
2023/07/12 03:14:37;;;;;;;5.00;4.45;;;20.50;99.90;;;;;;5002696;28;20197;-73
2023/07/12 03:17:05;;;;;;;5.00;4.32;;;20.70;99.90;;;;;;5004747;28;20224;-73
2023/07/12 03:19:35;;;;;;;4.78;3.67;;;21.20;99.90;;;;;;5007125;28;20218;-74
2023/07/12 03:22:02;;;;;;;4.60;4.20;;;21.60;99.90;;;;;;5001624;28;20717;-74
2023/07/12 03:24:29;;;;;;;4.38;3.97;;;21.80;99.90;;;;;;5006586;28;20762;-73
2023/07/12 03:26:56;;;;;;;4.28;3.40;;;21.60;99.90;;;;;;5001496;28;20226;-74
2023/07/12 03:29:23;;;;;;;4.75;3.95;;;21.70;99.90;;;;;;5004835;28;20295;-73
2023/07/12 03:31:50;;;;;;;4.93;3.80;;;21.80;99.90;;;;;;5003098;28;20295;-73
2023/07/12 03:34:17;;;;;;;5.38;3.50;;;21.40;99.90;;;;;;5001901;28;20242;-74
2023/07/12 03:36:46;;;;;;;3.55;3.08;;;21.20;99.90;;;;;;5004105;28;20600;-73
2023/07/12 03:39:13;;;;;;;3.42;3.10;;;21.50;99.90;;;;;;5002440;28;20231;-73
2023/07/12 03:41:40;;;;;;;3.90;3.50;;;21.80;99.90;;;;;;5001532;28;20208;-74
2023/07/12 03:44:06;;;;;;;3.67;3.22;;;22.00;99.90;;;;;;5002767;28;20248;-74
2023/07/12 03:46:33;;;;;;;4.05;3.53;;;22.20;99.90;;;;;;5004338;28;20306;-75
2023/07/12 03:49:00;;;;;;;3.50;3.20;;;22.40;99.90;;;;;;5002759;28;20233;-75
2023/07/12 03:51:27;;;;;;;3.20;2.97;;;22.30;99.90;;;;;;5000337;28;20192;-75
2023/07/12 03:53:56;;;;;;;3.20;2.90;;;22.10;99.90;;;;;;5003747;28;20200;-75
2023/07/12 03:56:23;;;;;;;3.42;2.97;;;22.10;99.90;;;;;;5002100;28;20282;-75
2023/07/12 03:58:50;;;;;;;3.53;3.22;;;22.20;99.90;;;;;;5004054;28;20275;-75
2023/07/12 04:01:18;;;;;;;2.92;2.72;;;22.30;99.90;;;;;;5004831;28;20203;-76
2023/07/12 04:03:45;;;;;;;3.10;2.90;;;22.40;99.90;;;;;;5003312;28;20223;-76
2023/07/12 04:06:12;;;;;;;2.78;2.58;;;22.50;99.90;;;;;;5005972;28;20228;-76
2023/07/12 04:08:40;;;;;;;2.63;2.42;;;22.60;99.90;;;;;;5002407;28;20205;-75
2023/07/12 04:11:19;;;;;;;3.13;2.83;;;22.50;99.90;;;;;;5004070;28;20266;-74
2023/07/12 04:13:46;;;;;;;3.00;2.80;;;22.50;99.90;;;;;;5002791;28;20631;-73
2023/07/12 04:16:15;;;;;;;2.90;2.63;;;22.60;99.90;;;;;;5001440;28;20319;-74
2023/07/12 04:18:42;;;;;;;3.25;2.95;;;22.70;99.90;;;;;;5005914;28;20196;-73
2023/07/12 04:21:09;;;;;;;3.30;2.85;;;22.70;99.90;;;;;;5000782;28;20290;-74
2023/07/12 04:23:36;;;;;;;3.03;2.80;;;22.80;99.90;;;;;;5003145;28;20220;-73
2023/07/12 04:26:05;;;;;;;2.72;2.53;;;22.70;99.90;;;;;;5004867;28;20244;-73
2023/07/12 04:28:39;;;;;;;3.15;2.85;;;22.60;99.90;;;;;;5003101;28;20633;-73
2023/07/12 04:31:10;;;;;;;2.80;2.60;;;22.50;99.90;;;;;;5002491;28;20239;-73
2023/07/12 04:33:37;;;;;;;3.08;2.80;;;22.40;99.90;;;;;;5003820;28;20201;-73
2023/07/12 04:36:06;;;;;;;3.00;2.70;;;22.40;99.90;;;;;;4998799;28;20232;-76
2023/07/12 04:38:33;;;;;;;5.00;2.70;;;22.50;99.90;;;;;;5000768;28;20674;-74
2023/07/12 04:41:00;;;;;;;3.90;3.05;;;22.70;99.90;;;;;;5000416;28;20200;-74
2023/07/12 04:43:27;;;;;;;3.63;3.28;;;22.90;99.90;;;;;;5001631;28;20208;-73
2023/07/12 04:45:56;;;;;;;3.50;3.20;;;23.10;99.90;;;;;;4997651;28;20710;-72
2023/07/12 04:48:23;;;;;;;3.70;2.90;;;23.20;99.90;;;;;;5000303;28;20934;-74
2023/07/12 04:50:52;;;;;;;2.42;2.22;;;23.10;99.90;;;;;;5002306;28;20235;-74
2023/07/12 04:53:20;;;;;;;3.47;2.70;;;22.90;99.90;;;;;;4997525;28;20235;-74
2023/07/12 04:55:47;;;;;;;4.13;3.08;;;22.80;99.90;;;;;;5002001;28;20311;-74
2023/07/12 04:58:14;;;;;;;4.13;3.20;;;22.90;99.90;;;;;;4998513;28;20293;-74
2023/07/12 05:00:43;;;;;;;3.17;2.88;;;22.90;99.90;;;;;;5002185;28;20239;-74
2023/07/12 05:03:13;;;;;;;4.22;2.88;;;22.80;99.90;;;;;;5000371;28;20296;-74
2023/07/12 05:05:40;;;;;;;3.17;2.85;;;22.80;99.90;;;;;;4997210;28;21151;-75
2023/07/12 05:08:07;;;;;;;3.08;2.67;;;22.90;99.90;;;;;;4996323;28;20235;-74
2023/07/12 05:10:34;;;;;;;3.17;2.85;;;23.00;99.90;;;;;;4988896;28;20208;-74
2023/07/12 05:13:01;;;;;;;3.10;2.80;;;23.00;99.90;;;;;;4990050;28;20259;-74
2023/07/12 05:15:28;;;;;;;4.32;2.70;;;23.00;99.90;;;;;;4997604;28;20305;-76
2023/07/12 05:17:55;;;;;;;3.42;2.90;;;23.10;99.90;;;;;;4996020;28;20200;-75
2023/07/12 05:20:23;;;;;;;3.05;2.75;;;23.10;99.90;;;;;;4994824;28;20319;-75
2023/07/12 05:22:50;;;;;;;3.00;2.67;;;23.10;99.90;;;;;;4995189;28;20235;-76
2023/07/12 05:25:17;;;;;;;2.97;2.65;;;22.80;99.90;;;;;;4994161;28;20259;-75
2023/07/12 05:27:44;;;;;;;3.10;2.72;;;22.90;99.90;;;;;;4998657;28;20254;-74
2023/07/12 05:30:12;;;;;;;2.47;2.28;;;22.90;99.90;;;;;;4994565;28;20307;-75
2023/07/12 05:32:40;;;;;;;2.70;2.33;;;22.80;99.90;;;;;;4998594;28;20226;-74
2023/07/12 05:35:08;;;;;;;2.90;2.70;;;22.70;99.90;;;;;;4999087;28;20192;-75
2023/07/12 05:37:36;;;;;;;3.35;2.67;;;22.70;99.90;;;;;;4998640;28;20782;-75
2023/07/12 05:40:04;;;;;;;3.33;2.60;;;22.90;99.90;;;;;;4998113;28;20840;-75
2023/07/12 05:42:31;;;;;;;2.92;2.30;;;23.10;99.90;;;;;;4999214;28;20271;-74
2023/07/12 05:44:58;;;;;;;3.08;2.40;;;23.20;99.90;;;;;;4993667;28;20274;-75
2023/07/12 05:47:25;;;;;;;2.88;2.58;;;23.20;99.90;;;;;;5000030;28;20766;-75
2023/07/12 05:49:52;;;;;;;5.00;3.00;;;23.10;99.90;;;;;;5002958;28;20208;-76
2023/07/12 05:52:19;;;;;;;3.20;2.55;;;23.00;99.90;;;;;;5003876;28;20235;-76
2023/07/12 05:54:47;;;;;;;3.20;2.90;;;22.90;99.90;;;;;;4999324;28;20247;-74
2023/07/12 05:57:14;;;;;;;3.22;2.92;;;22.50;99.90;;;;;;4994142;28;20223;-75
2023/07/12 05:59:41;;;;;;;5.72;3.13;;;22.20;99.90;;;;;;4997536;28;20251;-75
2023/07/12 06:02:13;;;;;;;3.33;2.67;;;22.20;99.90;;;;;;4996032;28;20239;-74
2023/07/12 06:04:40;;;;;;;3.58;3.00;;;22.40;99.90;;;;;;4994069;28;20252;-75
2023/07/12 06:07:07;;;;;;;4.57;2.75;;;22.60;99.90;;;;;;4997041;28;20231;-74
2023/07/12 06:09:34;;;;;;;4.38;2.70;;;22.70;99.90;;;;;;4999975;28;20232;-74
2023/07/12 06:12:03;;;;;;;3.03;2.72;;;22.50;99.90;;;;;;5000473;28;20208;-74
2023/07/12 06:14:30;;;;;;;3.85;3.15;;;22.40;99.90;;;;;;4996033;28;20232;-74
2023/07/12 06:16:57;;;;;;;3.10;2.40;;;22.40;99.90;;;;;;4995401;28;20427;-75
2023/07/12 06:19:24;;;;;;;3.22;2.40;;;22.40;99.90;;;;;;4993451;28;20286;-75
2023/07/12 06:21:52;;;;;;;3.30;2.47;;;22.60;99.90;;;;;;4995351;28;20320;-75
2023/07/12 06:24:19;;;;;;;3.25;2.97;;;22.60;99.90;;;;;;4994689;28;20197;-75
2023/07/12 06:26:46;;;;;;;3.60;2.90;;;22.50;99.90;;;;;;4991842;28;20363;-75
2023/07/12 06:29:14;;;;;;;2.92;2.28;;;22.50;99.90;;;;;;4993965;28;20232;-75
2023/07/12 06:31:43;;;;;;;4.05;3.03;;;22.40;99.90;;;;;;4996670;28;20192;-75
2023/07/12 06:34:10;;;;;;;3.30;3.00;;;22.00;99.90;;;;;;4993838;28;20990;-74
2023/07/12 06:36:38;;;;;;;4.15;3.05;;;21.60;99.90;;;;;;4992785;28;20220;-75
2023/07/12 06:39:05;;;;;;;5.65;3.70;;;21.40;99.90;;;;;;4994958;28;20762;-75
2023/07/12 06:41:32;;;;;;;5.60;3.88;;;21.30;99.90;;;;;;4994989;28;20211;-75
2023/07/12 06:43:59;;;;;;;5.47;3.95;;;21.20;99.90;;;;;;4996622;28;20266;-75
2023/07/12 06:46:28;;;;;;;4.57;3.15;;;21.00;99.90;;;;;;4998552;28;20231;-75
2023/07/12 06:48:54;;;;;;;3.90;3.53;;;21.00;99.90;;;;;;4998960;28;20204;-76
2023/07/12 06:51:22;;;;;;;4.38;3.50;;;21.20;99.90;;;;;;4998812;28;20702;-75
2023/07/12 06:53:49;;;;;;;7.70;4.55;;;21.20;99.90;;;;;;4994909;28;20243;-75
2023/07/12 06:56:16;;;;;;;4.57;4.15;;;20.90;99.90;;;;;;4994787;28;20297;-76
2023/07/12 06:58:42;;;;;;;4.63;4.13;;;20.60;99.90;;;;;;4998345;28;20698;-76
2023/07/12 07:01:10;;;;;;;5.25;3.53;;;20.50;99.90;;;;;;4999567;28;20212;-75
2023/07/12 07:03:39;;;;;;;4.28;3.67;;;20.40;99.90;;;;;;4991791;28;20628;-76
2023/07/12 07:06:06;;;;;;;5.65;3.78;;;20.30;99.90;;;;;;4996274;28;20651;-76
2023/07/12 07:08:33;;;;;;;9.45;5.13;;;20.20;99.90;;;;;;4994794;28;20239;-75
2023/07/12 07:11:01;;;;;;;6.70;4.60;;;20.10;99.90;;;;;;4993785;28;20283;-76
2023/07/12 07:13:28;;;;;;;7.45;5.10;;;20.00;99.90;;;;;;4992238;28;20267;-75
2023/07/12 07:15:55;;;;;;;4.20;3.70;;;20.00;99.90;;;;;;4997388;28;20311;-74
2023/07/12 07:18:22;;;;;;;3.90;3.50;;;20.00;99.90;;;;;;4995938;28;20828;-75
2023/07/12 07:20:51;;;;;;;3.50;3.20;;;20.20;99.90;;;;;;4999127;28;20306;-75
2023/07/12 07:23:19;;;;;;;4.25;3.85;;;20.40;99.90;;;;;;4992937;28;20213;-76
2023/07/12 07:25:46;;;;;;;4.60;3.38;;;20.50;99.90;;;;;;4993975;28;20244;-76
2023/07/12 07:28:14;;;;;;;3.85;3.40;;;20.50;99.90;;;;;;4995125;28;20738;-75
2023/07/12 07:30:40;;;;;;;4.47;3.40;;;20.50;99.90;;;;;;4996902;28;20228;-76
2023/07/12 07:33:08;;;;;;;3.97;3.50;;;20.40;99.90;;;;;;5000139;28;20250;-77
2023/07/12 07:35:35;;;;;;;4.45;3.63;;;20.40;99.90;;;;;;5002256;28;20255;-76
2023/07/12 07:38:03;;;;;;;3.33;2.95;;;20.40;99.90;;;;;;5006342;28;20204;-75
2023/07/12 07:40:30;;;;;;;3.10;2.80;;;20.50;99.90;;;;;;5008711;28;20201;-76
2023/07/12 07:42:57;;;;;;;3.47;2.67;;;20.50;99.90;;;;;;5005678;28;20208;-76
2023/07/12 07:45:24;;;;;;;4.20;2.70;;;20.50;99.90;;;;;;4997813;28;20251;-75
2023/07/12 07:47:51;;;;;;;5.03;3.20;;;20.80;99.90;;;;;;4997959;28;20295;-75
2023/07/12 07:50:20;;;;;;;4.90;3.20;;;21.10;99.90;;;;;;4992146;28;20291;-76
2023/07/12 07:52:47;;;;;;;4.68;3.35;;;21.40;99.90;;;;;;4997739;28;20571;-75
2023/07/12 07:55:15;;;;;;;4.15;2.97;;;21.60;99.90;;;;;;4995393;28;20196;-75
2023/07/12 07:57:42;;;;;;;4.55;2.80;;;21.70;99.90;;;;;;4997767;28;20264;-75
2023/07/12 08:00:10;;;;;;;4.68;2.80;;;21.80;99.90;;;;;;4995794;28;20255;-76
2023/07/12 08:02:38;;;;;;;3.00;2.22;;;21.90;99.90;;;;;;4995192;28;21101;-76
2023/07/12 08:05:05;;;;;;;2.70;2.40;;;21.80;99.90;;;;;;4993941;28;20207;-75
2023/07/12 08:07:38;;;;;;;2.72;2.30;;;21.80;99.90;;;;;;4994804;28;20207;-76
2023/07/12 08:10:06;;;;;;;2.75;2.15;;;21.70;99.90;;;;;;4995859;28;20204;-76
2023/07/12 08:12:35;;;;;;;2.28;2.00;;;21.60;99.90;;;;;;4995959;28;20240;-77
2023/07/12 08:15:02;;;;;;;4.30;2.17;;;21.40;99.90;;;;;;4998387;28;20240;-75
2023/07/12 08:17:29;;;;;;;2.40;1.60;;;21.40;99.90;;;;;;4997575;28;20200;-76
2023/07/12 08:19:56;;;;;;;3.92;2.03;;;21.40;99.90;;;;;;4994131;28;20295;-75
2023/07/12 08:22:23;;;;;;;1.60;1.45;;;21.30;99.90;;;;;;4998239;28;20208;-75
2023/07/12 08:24:50;;;;;;;2.03;1.65;;;21.40;99.90;;;;;;4996761;28;20214;-76
2023/07/12 08:27:16;;;;;;;117.05;6.80;;;21.50;99.90;;;;;;5001104;28;20693;-76
2023/07/12 08:29:45;;;;;;;89.38;5.68;;;21.50;99.90;;;;;;4993414;28;20203;-76
2023/07/12 08:32:12;;;;;;;19.48;3.15;;;21.10;99.90;;;;;;4993499;28;20305;-74
2023/07/12 08:34:39;;;;;;;21.48;2.65;;;20.90;99.90;;;;;;4991778;28;20665;-75
2023/07/12 08:37:07;;;;;;;2.10;1.52;;;20.50;99.90;;;;;;4997858;28;20274;-76
2023/07/12 08:39:34;;;;;;;2.33;2.00;;;20.50;99.90;;;;;;4999329;28;20236;-76
2023/07/12 08:42:02;;;;;;;2.28;1.38;;;20.70;99.90;;;;;;4995782;28;20208;-75
2023/07/12 08:44:33;;;;;;;2.75;1.65;;;21.00;99.90;;;;;;4992160;28;20204;-78
2023/07/12 08:47:01;;;;;;;2.45;1.55;;;21.10;99.90;;;;;;4995804;28;20212;-75
2023/07/12 08:49:29;;;;;;;1.30;1.20;;;21.10;99.90;;;;;;4994193;28;20208;-74
2023/07/12 08:52:01;;;;;;;1.40;1.30;;;21.10;99.90;;;;;;4992406;28;20204;-74
2023/07/12 08:54:33;;;;;;;3.28;1.10;;;21.10;99.90;;;;;;4993017;28;20328;-74
2023/07/12 08:57:15;;;;;;;2.55;1.30;;;20.90;99.90;;;;;;4996357;28;20228;-75
2023/07/12 08:59:43;;;;;;;1.38;1.27;;;20.60;99.90;;;;;;4993653;28;20326;-75
2023/07/12 09:02:20;;;;;;;4.20;2.17;;;20.40;99.90;;;;;;4996271;28;20200;-75
2023/07/12 09:04:48;;;;;;;3.42;2.17;;;20.80;99.90;;;;;;4997433;28;20208;-75
2023/07/12 09:07:24;;;;;;;2.50;1.65;;;21.20;99.90;;;;;;4995976;28;20333;-74
2023/07/12 09:09:51;;;;;;;3.42;2.10;;;21.30;99.90;;;;;;4993249;28;20266;-74
2023/07/12 09:12:25;;;;;;;2.83;2.17;;;21.10;99.90;;;;;;4996620;28;20291;-75
2023/07/12 09:14:54;;;;;;;3.35;1.88;;;20.80;99.90;;;;;;4998172;28;20231;-73
2023/07/12 09:17:25;;;;;;;3.72;2.80;;;20.60;99.90;;;;;;4998265;28;20327;-75
2023/07/12 09:19:52;;;;;;;3.22;2.55;;;20.30;99.90;;;;;;4996072;28;20204;-74
2023/07/12 09:22:20;;;;;;;2.88;2.53;;;20.20;99.90;;;;;;4997929;28;20295;-74
2023/07/12 09:24:51;;;;;;;4.50;2.33;;;20.50;99.90;;;;;;4995704;28;20732;-75
2023/07/12 09:27:20;;;;;;;3.10;2.20;;;21.10;99.90;;;;;;4999318;28;20871;-76
2023/07/12 09:29:47;;;;;;;5.95;2.72;;;21.40;99.90;;;;;;4996261;28;20284;-74
2023/07/12 09:32:19;;;;;;;4.15;2.83;;;21.60;99.90;;;;;;4998401;28;20224;-74
2023/07/12 09:34:48;;;;;;;3.80;1.98;;;21.60;99.90;;;;;;4991575;28;21674;-74
2023/07/12 09:37:18;;;;;;;3.55;2.30;;;21.50;99.90;;;;;;4990640;28;20243;-75
2023/07/12 09:39:54;;;;;;;2.80;2.42;;;21.60;99.90;;;;;;4994552;28;20196;-74
2023/07/12 09:42:21;;;;;;;2.10;1.90;;;22.20;99.90;;;;;;4993581;28;20235;-75
2023/07/12 09:44:49;;;;;;;3.08;2.22;;;22.80;99.90;;;;;;4988513;28;20327;-75
2023/07/12 09:47:31;;;;;;;3.45;2.15;;;23.30;99.90;;;;;;4996088;28;20710;-75
2023/07/12 09:50:06;;;;;;;3.20;2.40;;;23.50;99.90;;;;;;4995959;28;20224;-76
2023/07/12 09:52:40;;;;;;;4.15;2.08;;;23.60;99.90;;;;;;4995560;28;20244;-74
2023/07/12 09:55:16;;;;;;;2.40;1.88;;;23.70;99.90;;;;;;4994153;28;20271;-75
2023/07/12 09:57:56;;;;;;;3.60;2.25;;;23.80;99.90;;;;;;4991904;28;20286;-75
2023/07/12 10:00:29;;;;;;;2.60;1.95;;;24.10;99.90;;;;;;4991843;28;20223;-76
2023/07/12 10:03:13;;;;;;;2.63;1.88;;;24.20;99.90;;;;;;4993047;28;20699;-75
2023/07/12 10:05:45;;;;;;;2.00;1.60;;;24.10;99.90;;;;;;4992598;28;20228;-76
2023/07/12 10:08:15;;;;;;;2.70;1.80;;;24.10;99.90;;;;;;4994703;28;20258;-74
2023/07/12 10:10:49;;;;;;;1.60;1.50;;;24.00;99.90;;;;;;4994499;28;20825;-74
2023/07/12 10:13:36;;;;;;;2.03;1.77;;;24.10;99.90;;;;;;4997573;28;20908;-76
2023/07/12 10:16:07;;;;;;;2.10;1.75;;;24.50;99.90;;;;;;4993275;28;20285;-75
2023/07/12 10:18:36;;;;;;;2.85;2.17;;;24.60;99.90;;;;;;4993114;28;20287;-75
2023/07/12 10:21:06;;;;;;;3.72;1.77;;;24.50;99.90;;;;;;5017183;23;20422;-75
2023/07/12 10:23:43;;;;;;;1.95;1.70;;;24.50;99.90;;;;;;5021843;28;20224;-75
2023/07/12 10:26:14;;;;;;;2.90;1.90;;;24.50;99.90;;;;;;5019255;28;20262;-75
2023/07/12 10:28:47;;;;;;;2.65;1.85;;;24.70;99.90;;;;;;5017746;28;20230;-76
2023/07/12 10:31:32;;;;;;;2.58;1.90;;;24.80;99.90;;;;;;5022994;28;20239;-75
2023/07/12 10:34:13;;;;;;;4.40;1.80;;;24.90;99.90;;;;;;5015875;28;20993;-75
2023/07/12 10:36:44;;;;;;;3.08;1.90;;;25.00;99.90;;;;;;5019478;28;20227;-75
2023/07/12 10:39:12;;;;;;;2.10;1.50;;;25.10;99.90;;;;;;5019797;28;20203;-75
2023/07/12 10:41:46;;;;;;;3.55;1.73;;;25.30;99.90;;;;;;5010804;28;20207;-75
2023/07/12 10:44:20;;;;;;;1.60;1.50;;;25.70;99.90;;;;;;5014215;28;20314;-75
2023/07/12 10:46:51;;;;;;;3.13;1.98;;;26.00;99.90;;;;;;5016970;28;20300;-75
2023/07/12 10:49:21;;;;;;;2.30;1.60;;;26.10;99.90;;;;;;5020458;28;20195;-76
2023/07/12 10:52:16;;;;;;;2.17;1.73;;;26.10;99.90;;;;;;5021113;28;20338;-76
2023/07/12 10:55:04;;;;;;;1.95;1.77;;;26.30;99.90;;;;;;5021500;28;20196;-77
2023/07/12 10:57:39;;;;;;;1.95;1.75;;;26.30;99.90;;;;;;5012523;28;20287;-75
2023/07/12 11:00:23;;;;;;;3.17;1.95;;;26.00;99.90;;;;;;5020332;28;20206;-77
2023/07/12 11:03:02;;;;;;;2.40;1.60;;;26.00;99.90;;;;;;5019817;28;20227;-76
2023/07/12 11:05:41;;;;;;;2.58;1.58;;;26.10;99.90;;;;;;5026965;28;20287;-77
2023/07/12 11:08:54;;;;;;;1.63;1.50;;;26.20;99.90;;;;;;5018415;28;20216;-74
2023/07/12 11:11:43;;;;;;;2.63;1.83;;;26.20;99.90;;;;;;5022343;28;20203;-79
2023/07/12 11:14:44;;;;;;;2.15;1.52;;;26.20;99.90;;;;;;5023060;28;20225;-75
2023/07/12 11:17:20;;;;;;;4.00;2.45;;;26.40;99.90;;;;;;5026105;28;20634;-75
2023/07/12 11:20:06;;;;;;;3.25;2.10;;;26.40;99.90;;;;;;5018223;28;20208;-75
2023/07/12 11:22:57;;;;;;;3.55;2.20;;;26.30;99.90;;;;;;5020784;28;20228;-76
2023/07/12 11:25:52;;;;;;;2.15;1.90;;;26.60;99.90;;;;;;5020380;28;20234;-76
2023/07/12 11:28:41;;;;;;;1.95;1.85;;;26.50;99.90;;;;;;5021528;28;21062;-76
2023/07/12 11:31:26;;;;;;;1.73;1.63;;;26.70;99.90;;;;;;5022356;28;20204;-76
2023/07/12 11:33:56;;;;;;;1.80;1.70;;;26.80;99.90;;;;;;5019325;28;20210;-75
2023/07/12 11:36:28;;;;;;;2.08;1.83;;;26.90;99.90;;;;;;5020847;28;20198;-75
2023/07/12 11:38:56;;;;;;;2.40;2.00;;;26.90;99.90;;;;;;5019183;28;20234;-74
2023/07/12 11:41:27;;;;;;;2.42;1.40;;;27.00;99.90;;;;;;5015766;28;20365;-75
2023/07/12 11:44:03;;;;;;;2.92;1.90;;;27.30;99.90;;;;;;5016809;28;20216;-75
2023/07/12 11:46:33;;;;;;;3.47;2.00;;;27.40;99.90;;;;;;5014879;28;20983;-75
2023/07/12 11:49:04;;;;;;;1.80;1.70;;;27.50;99.90;;;;;;5023549;28;20200;-75
2023/07/12 11:51:36;;;;;;;2.13;1.80;;;27.70;99.90;;;;;;5024853;28;20204;-75
2023/07/12 11:54:11;;;;;;;2.92;1.90;;;27.80;99.90;;;;;;5022753;28;20744;-75
2023/07/12 11:56:43;;;;;;;2.25;1.92;;;27.70;99.90;;;;;;5018150;28;20227;-75
2023/07/12 11:59:14;;;;;;;3.40;1.70;;;27.50;99.90;;;;;;5024382;28;20238;-75
2023/07/12 12:01:43;;;;;;;2.20;1.80;;;27.40;99.90;;;;;;5013842;28;20216;-75
2023/07/12 12:04:21;;;;;;;2.10;1.73;;;27.30;99.90;;;;;;5022830;28;20191;-75
2023/07/12 12:06:55;;;;;;;2.50;1.90;;;27.10;99.90;;;;;;5019548;28;20931;-76
2023/07/12 12:09:27;;;;;;;2.33;1.60;;;27.10;99.90;;;;;;5015445;28;20676;-76
2023/07/12 12:11:57;;;;;;;3.50;2.00;;;27.30;99.90;;;;;;5022714;28;20317;-76
2023/07/12 12:14:27;;;;;;;2.38;1.90;;;27.50;99.90;;;;;;5022083;28;20332;-76
2023/07/12 12:16:56;;;;;;;1.88;1.77;;;27.70;99.90;;;;;;5015910;28;20733;-76
2023/07/12 12:19:28;;;;;;;2.95;2.08;;;27.80;99.90;;;;;;5016117;28;20207;-77
2023/07/12 12:22:02;;;;;;;2.10;1.60;;;27.70;99.90;;;;;;5016180;28;20223;-77
2023/07/12 12:24:40;;;;;;;2.53;1.73;;;27.80;99.90;;;;;;5021123;28;20195;-77
2023/07/12 12:27:18;;;;;;;3.15;1.77;;;27.90;99.90;;;;;;5018998;28;20235;-77
2023/07/12 12:29:45;;;;;;;3.45;2.13;;;27.90;99.90;;;;;;5018025;28;20917;-76
2023/07/12 12:32:16;;;;;;;2.13;1.65;;;27.80;99.90;;;;;;5016995;28;20220;-77
2023/07/12 12:34:47;;;;;;;2.25;1.55;;;27.80;99.90;;;;;;5020180;28;20204;-78
2023/07/12 12:37:28;;;;;;;2.05;1.60;;;28.00;99.90;;;;;;5020322;28;20197;-77
2023/07/12 12:40:00;;;;;;;1.60;1.50;;;28.30;99.90;;;;;;5012401;28;20310;-79
2023/07/12 12:42:31;;;;;;;2.95;2.00;;;28.20;99.90;;;;;;5012076;28;22134;-77
2023/07/12 12:44:59;;;;;;;1.70;1.60;;;28.40;99.90;;;;;;5016194;28;20223;-77
2023/07/12 12:47:30;;;;;;;2.58;1.58;;;28.30;99.90;;;;;;5025988;28;20218;-77
2023/07/12 12:49:58;;;;;;;2.03;1.40;;;28.30;99.90;;;;;;5053455;23;20227;-73
2023/07/12 12:52:27;;;;;;;3.05;1.42;;;28.40;99.90;;;;;;5012780;28;20222;-74
2023/07/12 12:54:55;;;;;;;1.98;1.80;;;28.40;99.90;;;;;;5013021;28;20289;-76
2023/07/12 13:00:33;;;;;;;3.67;1.60;;;28.30;99.90;;;;;;5018173;27;1997297;-76
2023/07/12 13:03:00;;;;;;;1.77;1.42;;;28.30;99.90;;;;;;5081746;28;20299;-77